sensor_id;sensor_type;location;lat;lon;timestamp;P1;durP1;ratioP1;P2;durP2;ratioP2
28427;SDS011;15662;49.128;8.520;2022-08-19T00:00:45;13.02;;;11.82;;
28427;SDS011;15662;49.128;8.520;2022-08-19T00:03:13;13.10;;;11.82;;
28427;SDS011;15662;49.128;8.520;2022-08-19T00:05:41;13.20;;;12.00;;
28427;SDS011;15662;49.128;8.520;2022-08-19T00:08:09;12.60;;;11.43;;
28427;SDS011;15662;49.128;8.520;2022-08-19T00:10:37;12.52;;;11.38;;
28427;SDS011;15662;49.128;8.520;2022-08-19T00:13:06;12.98;;;11.77;;
28427;SDS011;15662;49.128;8.520;2022-08-19T00:15:35;13.77;;;12.48;;
28427;SDS011;15662;49.128;8.520;2022-08-19T00:18:04;13.10;;;11.90;;
28427;SDS011;15662;49.128;8.520;2022-08-19T00:20:32;13.05;;;11.75;;
28427;SDS011;15662;49.128;8.520;2022-08-19T00:23:00;13.45;;;12.05;;
28427;SDS011;15662;49.128;8.520;2022-08-19T00:25:32;13.23;;;11.88;;
28427;SDS011;15662;49.128;8.520;2022-08-19T00:28:02;12.75;;;11.65;;
28427;SDS011;15662;49.128;8.520;2022-08-19T00:30:32;12.48;;;11.38;;
28427;SDS011;15662;49.128;8.520;2022-08-19T00:33:01;12.10;;;11.00;;
28427;SDS011;15662;49.128;8.520;2022-08-19T00:35:30;13.48;;;12.23;;
28427;SDS011;15662;49.128;8.520;2022-08-19T00:37:59;13.52;;;11.98;;
28427;SDS011;15662;49.128;8.520;2022-08-19T00:40:28;13.13;;;11.85;;
28427;SDS011;15662;49.128;8.520;2022-08-19T00:42:57;13.45;;;12.25;;
28427;SDS011;15662;49.128;8.520;2022-08-19T00:45:27;13.50;;;12.25;;
28427;SDS011;15662;49.128;8.520;2022-08-19T00:48:03;12.48;;;11.32;;
28427;SDS011;15662;49.128;8.520;2022-08-19T00:50:41;13.05;;;11.55;;
28427;SDS011;15662;49.128;8.520;2022-08-19T00:53:20;12.48;;;11.27;;
28427;SDS011;15662;49.128;8.520;2022-08-19T00:55:52;13.77;;;12.30;;
28427;SDS011;15662;49.128;8.520;2022-08-19T00:58:24;12.68;;;11.40;;
28427;SDS011;15662;49.128;8.520;2022-08-19T01:00:58;13.38;;;12.07;;
28427;SDS011;15662;49.128;8.520;2022-08-19T01:03:35;13.52;;;12.23;;
28427;SDS011;15662;49.128;8.520;2022-08-19T01:06:23;12.63;;;11.52;;
28427;SDS011;15662;49.128;8.520;2022-08-19T01:08:51;13.15;;;11.93;;
28427;SDS011;15662;49.128;8.520;2022-08-19T01:11:23;13.27;;;12.07;;
28427;SDS011;15662;49.128;8.520;2022-08-19T01:13:53;12.98;;;11.73;;
28427;SDS011;15662;49.128;8.520;2022-08-19T01:16:24;13.93;;;12.63;;
28427;SDS011;15662;49.128;8.520;2022-08-19T01:18:54;13.15;;;11.85;;
28427;SDS011;15662;49.128;8.520;2022-08-19T01:21:33;12.23;;;11.18;;
28427;SDS011;15662;49.128;8.520;2022-08-19T01:24:07;13.40;;;12.20;;
28427;SDS011;15662;49.128;8.520;2022-08-19T01:26:39;13.27;;;12.02;;
28427;SDS011;15662;49.128;8.520;2022-08-19T01:29:12;13.57;;;12.25;;
28427;SDS011;15662;49.128;8.520;2022-08-19T01:31:41;13.45;;;12.15;;
28427;SDS011;15662;49.128;8.520;2022-08-19T01:34:09;13.13;;;11.93;;
28427;SDS011;15662;49.128;8.520;2022-08-19T01:36:42;13.48;;;12.20;;
28427;SDS011;15662;49.128;8.520;2022-08-19T01:39:17;13.43;;;12.15;;
28427;SDS011;15662;49.128;8.520;2022-08-19T01:41:51;13.18;;;11.88;;
28427;SDS011;15662;49.128;8.520;2022-08-19T01:44:21;13.25;;;12.05;;
28427;SDS011;15662;49.128;8.520;2022-08-19T01:46:51;13.55;;;11.52;;
28427;SDS011;15662;49.128;8.520;2022-08-19T01:49:21;13.98;;;12.65;;
28427;SDS011;15662;49.128;8.520;2022-08-19T01:51:52;13.85;;;12.57;;
28427;SDS011;15662;49.128;8.520;2022-08-19T01:54:22;13.00;;;11.82;;
28427;SDS011;15662;49.128;8.520;2022-08-19T01:56:57;14.10;;;12.90;;
28427;SDS011;15662;49.128;8.520;2022-08-19T01:59:33;15.13;;;12.25;;
28427;SDS011;15662;49.128;8.520;2022-08-19T02:02:05;14.45;;;13.02;;
28427;SDS011;15662;49.128;8.520;2022-08-19T02:04:35;13.55;;;12.02;;
28427;SDS011;15662;49.128;8.520;2022-08-19T02:07:06;14.65;;;13.10;;
28427;SDS011;15662;49.128;8.520;2022-08-19T02:09:35;13.18;;;12.05;;
28427;SDS011;15662;49.128;8.520;2022-08-19T02:12:05;13.77;;;12.48;;
28427;SDS011;15662;49.128;8.520;2022-08-19T02:14:36;13.50;;;12.20;;
28427;SDS011;15662;49.128;8.520;2022-08-19T02:17:05;13.13;;;11.93;;
28427;SDS011;15662;49.128;8.520;2022-08-19T02:19:34;14.68;;;13.38;;
28427;SDS011;15662;49.128;8.520;2022-08-19T02:22:08;13.57;;;12.38;;
28427;SDS011;15662;49.128;8.520;2022-08-19T02:24:36;14.02;;;12.73;;
28427;SDS011;15662;49.128;8.520;2022-08-19T02:27:07;13.88;;;12.48;;
28427;SDS011;15662;49.128;8.520;2022-08-19T02:29:35;13.75;;;12.48;;
28427;SDS011;15662;49.128;8.520;2022-08-19T02:32:03;14.48;;;13.07;;
28427;SDS011;15662;49.128;8.520;2022-08-19T02:34:32;13.80;;;12.43;;
28427;SDS011;15662;49.128;8.520;2022-08-19T02:37:01;14.25;;;12.95;;
28427;SDS011;15662;49.128;8.520;2022-08-19T02:39:30;14.27;;;12.98;;
28427;SDS011;15662;49.128;8.520;2022-08-19T02:41:58;14.15;;;12.85;;
28427;SDS011;15662;49.128;8.520;2022-08-19T02:44:26;13.85;;;12.57;;
28427;SDS011;15662;49.128;8.520;2022-08-19T02:46:58;14.13;;;12.73;;
28427;SDS011;15662;49.128;8.520;2022-08-19T02:49:27;13.82;;;12.40;;
28427;SDS011;15662;49.128;8.520;2022-08-19T02:52:00;14.85;;;13.38;;
28427;SDS011;15662;49.128;8.520;2022-08-19T02:54:31;14.65;;;13.35;;
28427;SDS011;15662;49.128;8.520;2022-08-19T02:57:03;13.38;;;12.18;;
28427;SDS011;15662;49.128;8.520;2022-08-19T02:59:33;14.25;;;12.85;;
28427;SDS011;15662;49.128;8.520;2022-08-19T03:02:02;15.30;;;13.85;;
28427;SDS011;15662;49.128;8.520;2022-08-19T03:04:30;14.65;;;13.15;;
28427;SDS011;15662;49.128;8.520;2022-08-19T03:06:59;14.63;;;13.23;;
28427;SDS011;15662;49.128;8.520;2022-08-19T03:09:37;14.68;;;13.38;;
28427;SDS011;15662;49.128;8.520;2022-08-19T03:12:05;13.90;;;12.55;;
28427;SDS011;15662;49.128;8.520;2022-08-19T03:14:34;15.48;;;13.88;;
28427;SDS011;15662;49.128;8.520;2022-08-19T03:17:04;15.40;;;13.90;;
28427;SDS011;15662;49.128;8.520;2022-08-19T03:19:35;14.63;;;13.30;;
28427;SDS011;15662;49.128;8.520;2022-08-19T03:22:04;14.27;;;12.93;;
28427;SDS011;15662;49.128;8.520;2022-08-19T03:24:32;14.05;;;12.80;;
28427;SDS011;15662;49.128;8.520;2022-08-19T03:27:01;14.00;;;12.77;;
28427;SDS011;15662;49.128;8.520;2022-08-19T03:29:31;13.40;;;12.20;;
28427;SDS011;15662;49.128;8.520;2022-08-19T03:32:09;14.25;;;12.85;;
28427;SDS011;15662;49.128;8.520;2022-08-19T03:34:58;14.43;;;13.18;;
28427;SDS011;15662;49.128;8.520;2022-08-19T03:37:27;15.07;;;13.15;;
28427;SDS011;15662;49.128;8.520;2022-08-19T03:39:56;14.55;;;13.05;;
28427;SDS011;15662;49.128;8.520;2022-08-19T03:42:26;14.70;;;13.35;;
28427;SDS011;15662;49.128;8.520;2022-08-19T03:45:05;14.82;;;13.52;;
28427;SDS011;15662;49.128;8.520;2022-08-19T03:47:35;14.55;;;13.25;;
28427;SDS011;15662;49.128;8.520;2022-08-19T03:50:05;14.65;;;13.15;;
28427;SDS011;15662;49.128;8.520;2022-08-19T03:52:33;14.48;;;13.10;;
28427;SDS011;15662;49.128;8.520;2022-08-19T03:55:04;14.95;;;13.55;;
28427;SDS011;15662;49.128;8.520;2022-08-19T03:57:34;14.15;;;12.75;;
28427;SDS011;15662;49.128;8.520;2022-08-19T04:00:03;15.02;;;13.57;;
28427;SDS011;15662;49.128;8.520;2022-08-19T04:02:40;13.70;;;12.50;;
28427;SDS011;15662;49.128;8.520;2022-08-19T04:05:29;14.02;;;12.82;;
28427;SDS011;15662;49.128;8.520;2022-08-19T04:07:58;15.38;;;13.95;;
28427;SDS011;15662;49.128;8.520;2022-08-19T04:10:28;14.18;;;12.98;;
28427;SDS011;15662;49.128;8.520;2022-08-19T04:12:58;14.15;;;12.85;;
28427;SDS011;15662;49.128;8.520;2022-08-19T04:15:29;15.23;;;13.77;;
28427;SDS011;15662;49.128;8.520;2022-08-19T04:17:58;15.15;;;13.45;;
28427;SDS011;15662;49.128;8.520;2022-08-19T04:20:26;14.82;;;13.43;;
28427;SDS011;15662;49.128;8.520;2022-08-19T04:22:56;14.60;;;13.20;;
28427;SDS011;15662;49.128;8.520;2022-08-19T04:25:25;15.77;;;13.82;;
28427;SDS011;15662;49.128;8.520;2022-08-19T04:27:54;15.32;;;13.88;;
28427;SDS011;15662;49.128;8.520;2022-08-19T04:30:24;15.25;;;13.65;;
28427;SDS011;15662;49.128;8.520;2022-08-19T04:32:51;14.95;;;13.23;;
28427;SDS011;15662;49.128;8.520;2022-08-19T04:35:20;15.82;;;14.00;;
28427;SDS011;15662;49.128;8.520;2022-08-19T04:37:51;15.82;;;14.23;;
28427;SDS011;15662;49.128;8.520;2022-08-19T04:40:19;15.57;;;13.93;;
28427;SDS011;15662;49.128;8.520;2022-08-19T04:43:06;15.85;;;14.30;;
28427;SDS011;15662;49.128;8.520;2022-08-19T04:45:36;15.20;;;13.57;;
28427;SDS011;15662;49.128;8.520;2022-08-19T04:48:11;15.43;;;13.70;;
28427;SDS011;15662;49.128;8.520;2022-08-19T04:50:53;15.63;;;13.63;;
28427;SDS011;15662;49.128;8.520;2022-08-19T04:53:28;15.95;;;13.63;;
28427;SDS011;15662;49.128;8.520;2022-08-19T04:56:06;15.00;;;13.50;;
28427;SDS011;15662;49.128;8.520;2022-08-19T04:58:38;15.75;;;13.80;;
28427;SDS011;15662;49.128;8.520;2022-08-19T05:01:14;15.27;;;13.57;;
28427;SDS011;15662;49.128;8.520;2022-08-19T05:03:47;16.65;;;13.77;;
28427;SDS011;15662;49.128;8.520;2022-08-19T05:06:18;14.77;;;13.30;;
28427;SDS011;15662;49.128;8.520;2022-08-19T05:08:48;14.57;;;13.25;;
28427;SDS011;15662;49.128;8.520;2022-08-19T05:11:28;14.70;;;13.38;;
28427;SDS011;15662;49.128;8.520;2022-08-19T05:14:00;14.82;;;13.35;;
28427;SDS011;15662;49.128;8.520;2022-08-19T05:16:29;15.60;;;14.00;;
28427;SDS011;15662;49.128;8.520;2022-08-19T05:18:57;15.57;;;14.15;;
28427;SDS011;15662;49.128;8.520;2022-08-19T05:21:44;14.13;;;12.70;;
28427;SDS011;15662;49.128;8.520;2022-08-19T05:24:33;14.23;;;13.02;;
28427;SDS011;15662;49.128;8.520;2022-08-19T05:27:03;14.02;;;12.82;;
28427;SDS011;15662;49.128;8.520;2022-08-19T05:29:33;14.48;;;13.18;;
28427;SDS011;15662;49.128;8.520;2022-08-19T05:32:03;15.50;;;13.18;;
28427;SDS011;15662;49.128;8.520;2022-08-19T05:34:37;14.50;;;13.10;;
28427;SDS011;15662;49.128;8.520;2022-08-19T05:37:06;14.65;;;13.15;;
28427;SDS011;15662;49.128;8.520;2022-08-19T05:39:35;14.32;;;13.02;;
28427;SDS011;15662;49.128;8.520;2022-08-19T05:42:09;13.93;;;12.57;;
28427;SDS011;15662;49.128;8.520;2022-08-19T05:44:58;13.95;;;12.55;;
28427;SDS011;15662;49.128;8.520;2022-08-19T05:47:26;15.82;;;12.93;;
28427;SDS011;15662;49.128;8.520;2022-08-19T05:49:55;14.00;;;12.60;;
28427;SDS011;15662;49.128;8.520;2022-08-19T05:52:23;16.98;;;12.98;;
28427;SDS011;15662;49.128;8.520;2022-08-19T05:54:52;14.27;;;12.82;;
28427;SDS011;15662;49.128;8.520;2022-08-19T05:57:23;15.43;;;12.27;;
28427;SDS011;15662;49.128;8.520;2022-08-19T05:59:52;13.60;;;12.30;;
28427;SDS011;15662;49.128;8.520;2022-08-19T06:02:28;14.10;;;12.48;;
28427;SDS011;15662;49.128;8.520;2022-08-19T06:04:58;16.83;;;12.13;;
28427;SDS011;15662;49.128;8.520;2022-08-19T06:07:26;14.45;;;12.82;;
28427;SDS011;15662;49.128;8.520;2022-08-19T06:09:56;14.18;;;12.48;;
28427;SDS011;15662;49.128;8.520;2022-08-19T06:12:27;13.90;;;12.45;;
28427;SDS011;15662;49.128;8.520;2022-08-19T06:15:03;16.60;;;12.18;;
28427;SDS011;15662;49.128;8.520;2022-08-19T06:17:38;14.50;;;12.80;;
28427;SDS011;15662;49.128;8.520;2022-08-19T06:20:10;13.80;;;12.52;;
28427;SDS011;15662;49.128;8.520;2022-08-19T06:22:42;14.70;;;12.52;;
28427;SDS011;15662;49.128;8.520;2022-08-19T06:25:12;14.80;;;11.25;;
28427;SDS011;15662;49.128;8.520;2022-08-19T06:27:42;12.95;;;11.82;;
28427;SDS011;15662;49.128;8.520;2022-08-19T06:30:31;12.68;;;10.95;;
28427;SDS011;15662;49.128;8.520;2022-08-19T06:32:59;14.00;;;12.60;;
28427;SDS011;15662;49.128;8.520;2022-08-19T06:35:28;12.52;;;11.43;;
28427;SDS011;15662;49.128;8.520;2022-08-19T06:37:56;13.10;;;12.00;;
28427;SDS011;15662;49.128;8.520;2022-08-19T06:40:24;12.30;;;11.30;;
28427;SDS011;15662;49.128;8.520;2022-08-19T06:42:54;12.35;;;11.25;;
28427;SDS011;15662;49.128;8.520;2022-08-19T06:45:24;12.45;;;11.02;;
28427;SDS011;15662;49.128;8.520;2022-08-19T06:48:04;12.32;;;11.32;;
28427;SDS011;15662;49.128;8.520;2022-08-19T06:50:32;12.07;;;11.05;;
28427;SDS011;15662;49.128;8.520;2022-08-19T06:53:02;12.63;;;11.27;;
28427;SDS011;15662;49.128;8.520;2022-08-19T06:55:32;12.30;;;11.13;;
28427;SDS011;15662;49.128;8.520;2022-08-19T06:58:03;11.43;;;10.43;;
28427;SDS011;15662;49.128;8.520;2022-08-19T07:00:32;11.63;;;10.70;;
28427;SDS011;15662;49.128;8.520;2022-08-19T07:03:01;11.68;;;10.57;;
28427;SDS011;15662;49.128;8.520;2022-08-19T07:05:41;11.35;;;10.32;;
28427;SDS011;15662;49.128;8.520;2022-08-19T07:08:12;10.85;;;9.90;;
28427;SDS011;15662;49.128;8.520;2022-08-19T07:10:44;10.43;;;9.63;;
28427;SDS011;15662;49.128;8.520;2022-08-19T07:13:14;10.20;;;9.27;;
28427;SDS011;15662;49.128;8.520;2022-08-19T07:15:43;12.57;;;11.50;;
28427;SDS011;15662;49.128;8.520;2022-08-19T07:18:13;11.98;;;10.77;;
28427;SDS011;15662;49.128;8.520;2022-08-19T07:20:41;10.88;;;9.98;;
28427;SDS011;15662;49.128;8.520;2022-08-19T07:23:10;10.02;;;9.13;;
28427;SDS011;15662;49.128;8.520;2022-08-19T07:25:42;9.65;;;8.85;;
28427;SDS011;15662;49.128;8.520;2022-08-19T07:28:19;9.18;;;8.38;;
28427;SDS011;15662;49.128;8.520;2022-08-19T07:30:52;9.50;;;8.60;;
28427;SDS011;15662;49.128;8.520;2022-08-19T07:33:21;11.60;;;10.25;;
28427;SDS011;15662;49.128;8.520;2022-08-19T07:35:49;9.27;;;8.48;;
28427;SDS011;15662;49.128;8.520;2022-08-19T07:38:18;9.63;;;8.57;;
28427;SDS011;15662;49.128;8.520;2022-08-19T07:40:46;7.95;;;7.35;;
28427;SDS011;15662;49.128;8.520;2022-08-19T07:43:14;8.00;;;7.40;;
28427;SDS011;15662;49.128;8.520;2022-08-19T07:45:44;9.05;;;8.25;;
28427;SDS011;15662;49.128;8.520;2022-08-19T07:48:14;8.15;;;7.35;;
28427;SDS011;15662;49.128;8.520;2022-08-19T07:50:41;8.07;;;7.38;;
28427;SDS011;15662;49.128;8.520;2022-08-19T07:53:11;8.63;;;7.93;;
28427;SDS011;15662;49.128;8.520;2022-08-19T07:55:39;8.10;;;7.40;;
28427;SDS011;15662;49.128;8.520;2022-08-19T07:58:11;7.32;;;6.72;;
28427;SDS011;15662;49.128;8.520;2022-08-19T08:00:44;8.55;;;7.70;;
28427;SDS011;15662;49.128;8.520;2022-08-19T08:03:15;8.18;;;7.47;;
28427;SDS011;15662;49.128;8.520;2022-08-19T08:05:49;7.38;;;6.65;;
28427;SDS011;15662;49.128;8.520;2022-08-19T08:08:36;8.20;;;6.82;;
28427;SDS011;15662;49.128;8.520;2022-08-19T08:11:34;7.50;;;6.90;;
28427;SDS011;15662;49.128;8.520;2022-08-19T08:14:04;7.30;;;6.53;;
28427;SDS011;15662;49.128;8.520;2022-08-19T08:16:54;8.25;;;6.15;;
28427;SDS011;15662;49.128;8.520;2022-08-19T08:19:25;6.55;;;5.95;;
28427;SDS011;15662;49.128;8.520;2022-08-19T08:21:55;7.15;;;6.65;;
28427;SDS011;15662;49.128;8.520;2022-08-19T08:24:27;7.57;;;6.35;;
28427;SDS011;15662;49.128;8.520;2022-08-19T08:26:58;6.93;;;6.22;;
28427;SDS011;15662;49.128;8.520;2022-08-19T08:29:28;7.82;;;6.78;;
28427;SDS011;15662;49.128;8.520;2022-08-19T08:32:02;5.93;;;5.38;;
28427;SDS011;15662;49.128;8.520;2022-08-19T08:34:41;6.60;;;6.00;;
28427;SDS011;15662;49.128;8.520;2022-08-19T08:37:10;7.22;;;6.22;;
28427;SDS011;15662;49.128;8.520;2022-08-19T08:39:39;6.43;;;5.97;;
28427;SDS011;15662;49.128;8.520;2022-08-19T08:42:09;6.28;;;5.68;;
28427;SDS011;15662;49.128;8.520;2022-08-19T08:45:06;6.70;;;6.13;;
28427;SDS011;15662;49.128;8.520;2022-08-19T08:47:44;5.88;;;5.47;;
28427;SDS011;15662;49.128;8.520;2022-08-19T08:50:34;5.93;;;5.38;;
28427;SDS011;15662;49.128;8.520;2022-08-19T08:53:16;6.28;;;5.78;;
28427;SDS011;15662;49.128;8.520;2022-08-19T08:55:56;6.03;;;5.53;;
28427;SDS011;15662;49.128;8.520;2022-08-19T08:58:28;5.80;;;5.20;;
28427;SDS011;15662;49.128;8.520;2022-08-19T09:01:36;5.20;;;4.85;;
28427;SDS011;15662;49.128;8.520;2022-08-19T09:04:05;6.70;;;4.82;;
28427;SDS011;15662;49.128;8.520;2022-08-19T09:06:51;5.40;;;4.90;;
28427;SDS011;15662;49.128;8.520;2022-08-19T09:16:07;6.43;;;5.75;;
28427;SDS011;15662;49.128;8.520;2022-08-19T09:18:56;6.17;;;5.57;;
28427;SDS011;15662;49.128;8.520;2022-08-19T09:21:29;5.18;;;4.78;;
28427;SDS011;15662;49.128;8.520;2022-08-19T09:24:00;4.82;;;4.50;;
28427;SDS011;15662;49.128;8.520;2022-08-19T09:26:30;5.43;;;4.68;;
28427;SDS011;15662;49.128;8.520;2022-08-19T09:29:14;5.35;;;4.93;;
28427;SDS011;15662;49.128;8.520;2022-08-19T09:31:43;5.22;;;4.30;;
28427;SDS011;15662;49.128;8.520;2022-08-19T09:34:11;5.00;;;4.60;;
28427;SDS011;15662;49.128;8.520;2022-08-19T09:36:48;5.20;;;4.80;;
28427;SDS011;15662;49.128;8.520;2022-08-19T09:39:21;4.63;;;4.22;;
28427;SDS011;15662;49.128;8.520;2022-08-19T09:41:49;4.38;;;4.07;;
28427;SDS011;15662;49.128;8.520;2022-08-19T09:44:17;4.55;;;4.25;;
28427;SDS011;15662;49.128;8.520;2022-08-19T09:46:49;4.38;;;4.07;;
28427;SDS011;15662;49.128;8.520;2022-08-19T09:49:18;4.35;;;4.00;;
28427;SDS011;15662;49.128;8.520;2022-08-19T09:51:51;4.28;;;3.97;;
28427;SDS011;15662;49.128;8.520;2022-08-19T09:54:23;6.28;;;4.07;;
28427;SDS011;15662;49.128;8.520;2022-08-19T09:56:55;4.32;;;4.00;;
28427;SDS011;15662;49.128;8.520;2022-08-19T09:59:25;4.72;;;4.28;;
28427;SDS011;15662;49.128;8.520;2022-08-19T10:01:55;4.78;;;4.35;;
28427;SDS011;15662;49.128;8.520;2022-08-19T10:04:30;4.13;;;3.83;;
28427;SDS011;15662;49.128;8.520;2022-08-19T10:07:16;3.90;;;3.60;;
28427;SDS011;15662;49.128;8.520;2022-08-19T10:09:45;7.28;;;3.90;;
28427;SDS011;15662;49.128;8.520;2022-08-19T10:12:14;3.80;;;3.40;;
28427;SDS011;15662;49.128;8.520;2022-08-19T10:14:46;3.75;;;3.45;;
28427;SDS011;15662;49.128;8.520;2022-08-19T10:17:15;3.90;;;3.60;;
28427;SDS011;15662;49.128;8.520;2022-08-19T10:19:46;6.95;;;4.20;;
28427;SDS011;15662;49.128;8.520;2022-08-19T10:22:22;4.20;;;3.80;;
28427;SDS011;15662;49.128;8.520;2022-08-19T10:24:52;3.83;;;3.58;;
28427;SDS011;15662;49.128;8.520;2022-08-19T10:27:20;3.97;;;3.67;;
28427;SDS011;15662;49.128;8.520;2022-08-19T10:29:49;4.47;;;3.80;;
28427;SDS011;15662;49.128;8.520;2022-08-19T10:32:31;3.95;;;3.42;;
28427;SDS011;15662;49.128;8.520;2022-08-19T10:35:01;3.75;;;3.47;;
28427;SDS011;15662;49.128;8.520;2022-08-19T10:37:35;3.40;;;3.20;;
28427;SDS011;15662;49.128;8.520;2022-08-19T10:40:25;4.50;;;3.55;;
28427;SDS011;15662;49.128;8.520;2022-08-19T10:42:54;3.90;;;3.60;;
28427;SDS011;15662;49.128;8.520;2022-08-19T10:45:23;4.25;;;3.95;;
28427;SDS011;15662;49.128;8.520;2022-08-19T10:50:22;4.00;;;3.60;;
28427;SDS011;15662;49.128;8.520;2022-08-19T10:53:09;4.90;;;4.32;;
28427;SDS011;15662;49.128;8.520;2022-08-19T10:55:38;3.95;;;3.75;;
28427;SDS011;15662;49.128;8.520;2022-08-19T10:58:26;4.70;;;3.90;;
28427;SDS011;15662;49.128;8.520;2022-08-19T11:00:54;4.28;;;3.55;;
28427;SDS011;15662;49.128;8.520;2022-08-19T11:03:25;5.50;;;3.60;;
28427;SDS011;15662;49.128;8.520;2022-08-19T11:05:58;4.00;;;3.70;;
28427;SDS011;15662;49.128;8.520;2022-08-19T11:08:32;4.43;;;4.03;;
28427;SDS011;15662;49.128;8.520;2022-08-19T11:11:02;3.55;;;3.35;;
28427;SDS011;15662;49.128;8.520;2022-08-19T11:13:34;4.07;;;3.83;;
28427;SDS011;15662;49.128;8.520;2022-08-19T11:16:11;4.00;;;3.70;;
28427;SDS011;15662;49.128;8.520;2022-08-19T11:18:54;4.47;;;4.18;;
28427;SDS011;15662;49.128;8.520;2022-08-19T11:24:02;3.60;;;3.30;;
28427;SDS011;15662;49.128;8.520;2022-08-19T11:26:34;3.88;;;3.58;;
28427;SDS011;15662;49.128;8.520;2022-08-19T11:29:03;3.15;;;2.95;;
28427;SDS011;15662;49.128;8.520;2022-08-19T11:31:42;3.20;;;3.00;;
28427;SDS011;15662;49.128;8.520;2022-08-19T11:34:18;3.35;;;3.15;;
28427;SDS011;15662;49.128;8.520;2022-08-19T11:37:09;3.78;;;3.55;;
28427;SDS011;15662;49.128;8.520;2022-08-19T11:39:37;3.63;;;3.42;;
28427;SDS011;15662;49.128;8.520;2022-08-19T11:42:06;3.78;;;3.38;;
28427;SDS011;15662;49.128;8.520;2022-08-19T11:44:55;3.10;;;3.00;;
28427;SDS011;15662;49.128;8.520;2022-08-19T11:47:23;3.70;;;3.50;;
28427;SDS011;15662;49.128;8.520;2022-08-19T11:49:52;3.70;;;3.50;;
28427;SDS011;15662;49.128;8.520;2022-08-19T11:52:21;3.30;;;3.10;;
28427;SDS011;15662;49.128;8.520;2022-08-19T11:54:50;3.72;;;3.42;;
28427;SDS011;15662;49.128;8.520;2022-08-19T11:57:20;4.82;;;3.47;;
28427;SDS011;15662;49.128;8.520;2022-08-19T11:59:52;4.15;;;3.85;;
28427;SDS011;15662;49.128;8.520;2022-08-19T12:02:21;3.90;;;3.60;;
28427;SDS011;15662;49.128;8.520;2022-08-19T12:04:51;3.97;;;3.70;;
28427;SDS011;15662;49.128;8.520;2022-08-19T12:07:19;4.53;;;4.13;;
28427;SDS011;15662;49.128;8.520;2022-08-19T12:09:48;4.50;;;4.20;;
28427;SDS011;15662;49.128;8.520;2022-08-19T12:12:17;4.57;;;3.80;;
28427;SDS011;15662;49.128;8.520;2022-08-19T12:14:46;4.18;;;3.88;;
28427;SDS011;15662;49.128;8.520;2022-08-19T12:17:14;3.97;;;3.70;;
28427;SDS011;15662;49.128;8.520;2022-08-19T12:19:42;3.90;;;3.70;;
28427;SDS011;15662;49.128;8.520;2022-08-19T12:22:11;4.15;;;3.85;;
28427;SDS011;15662;49.128;8.520;2022-08-19T12:24:40;4.13;;;3.92;;
28427;SDS011;15662;49.128;8.520;2022-08-19T12:27:08;4.22;;;3.92;;
28427;SDS011;15662;49.128;8.520;2022-08-19T12:32:08;3.67;;;3.38;;
28427;SDS011;15662;49.128;8.520;2022-08-19T12:34:38;3.50;;;3.30;;
28427;SDS011;15662;49.128;8.520;2022-08-19T12:37:07;3.25;;;3.05;;
28427;SDS011;15662;49.128;8.520;2022-08-19T12:39:36;3.88;;;3.67;;
28427;SDS011;15662;49.128;8.520;2022-08-19T12:42:09;3.80;;;3.60;;
28427;SDS011;15662;49.128;8.520;2022-08-19T12:44:39;3.53;;;3.40;;
28427;SDS011;15662;49.128;8.520;2022-08-19T12:47:11;3.90;;;3.60;;
28427;SDS011;15662;49.128;8.520;2022-08-19T12:49:42;3.83;;;3.53;;
28427;SDS011;15662;49.128;8.520;2022-08-19T12:52:25;3.63;;;3.42;;
28427;SDS011;15662;49.128;8.520;2022-08-19T12:54:55;3.80;;;3.60;;
28427;SDS011;15662;49.128;8.520;2022-08-19T12:57:26;5.15;;;3.60;;
28427;SDS011;15662;49.128;8.520;2022-08-19T13:00:10;3.80;;;3.60;;
28427;SDS011;15662;49.128;8.520;2022-08-19T13:02:45;4.13;;;3.83;;
28427;SDS011;15662;49.128;8.520;2022-08-19T13:05:25;4.10;;;3.80;;
28427;SDS011;15662;49.128;8.520;2022-08-19T13:07:59;4.20;;;3.90;;
28427;SDS011;15662;49.128;8.520;2022-08-19T13:10:29;4.35;;;4.05;;
28427;SDS011;15662;49.128;8.520;2022-08-19T13:13:07;3.97;;;3.78;;
28427;SDS011;15662;49.128;8.520;2022-08-19T13:15:41;5.05;;;3.78;;
28427;SDS011;15662;49.128;8.520;2022-08-19T13:18:12;4.05;;;3.85;;
28427;SDS011;15662;49.128;8.520;2022-08-19T13:20:42;3.90;;;3.70;;
28427;SDS011;15662;49.128;8.520;2022-08-19T13:23:19;4.40;;;4.13;;
28427;SDS011;15662;49.128;8.520;2022-08-19T13:25:58;4.57;;;4.28;;
28427;SDS011;15662;49.128;8.520;2022-08-19T13:28:29;6.85;;;4.00;;
28427;SDS011;15662;49.128;8.520;2022-08-19T13:31:18;4.32;;;4.10;;
28427;SDS011;15662;49.128;8.520;2022-08-19T13:34:09;4.18;;;3.85;;
28427;SDS011;15662;49.128;8.520;2022-08-19T13:36:38;4.32;;;4.13;;
28427;SDS011;15662;49.128;8.520;2022-08-19T13:39:14;3.90;;;3.70;;
28427;SDS011;15662;49.128;8.520;2022-08-19T13:41:44;4.22;;;4.03;;
28427;SDS011;15662;49.128;8.520;2022-08-19T13:44:17;3.33;;;3.22;;
28427;SDS011;15662;49.128;8.520;2022-08-19T13:46:47;3.15;;;2.95;;
28427;SDS011;15662;49.128;8.520;2022-08-19T13:49:20;3.20;;;3.00;;
28427;SDS011;15662;49.128;8.520;2022-08-19T13:51:50;3.45;;;3.15;;
28427;SDS011;15662;49.128;8.520;2022-08-19T13:54:18;3.40;;;3.20;;
28427;SDS011;15662;49.128;8.520;2022-08-19T13:56:46;3.03;;;2.80;;
28427;SDS011;15662;49.128;8.520;2022-08-19T13:59:14;3.33;;;3.13;;
28427;SDS011;15662;49.128;8.520;2022-08-19T14:01:42;3.35;;;3.20;;
28427;SDS011;15662;49.128;8.520;2022-08-19T14:04:10;3.22;;;3.03;;
28427;SDS011;15662;49.128;8.520;2022-08-19T14:06:39;3.47;;;3.15;;
28427;SDS011;15662;49.128;8.520;2022-08-19T14:09:07;2.60;;;2.50;;
28427;SDS011;15662;49.128;8.520;2022-08-19T14:11:35;2.80;;;2.70;;
28427;SDS011;15662;49.128;8.520;2022-08-19T14:14:04;2.78;;;2.67;;
28427;SDS011;15662;49.128;8.520;2022-08-19T14:16:33;4.65;;;2.85;;
28427;SDS011;15662;49.128;8.520;2022-08-19T14:19:02;2.90;;;2.80;;
28427;SDS011;15662;49.128;8.520;2022-08-19T14:21:30;2.60;;;2.40;;
28427;SDS011;15662;49.128;8.520;2022-08-19T14:24:07;2.70;;;2.60;;
28427;SDS011;15662;49.128;8.520;2022-08-19T14:26:36;2.88;;;2.78;;
28427;SDS011;15662;49.128;8.520;2022-08-19T14:29:04;2.70;;;2.50;;
28427;SDS011;15662;49.128;8.520;2022-08-19T14:31:34;2.95;;;2.83;;
28427;SDS011;15662;49.128;8.520;2022-08-19T14:34:02;2.78;;;2.67;;
28427;SDS011;15662;49.128;8.520;2022-08-19T14:36:31;2.63;;;2.53;;
28427;SDS011;15662;49.128;8.520;2022-08-19T14:39:07;2.95;;;2.75;;
28427;SDS011;15662;49.128;8.520;2022-08-19T14:41:39;2.75;;;2.65;;
28427;SDS011;15662;49.128;8.520;2022-08-19T14:44:09;2.58;;;2.30;;
28427;SDS011;15662;49.128;8.520;2022-08-19T14:47:26;2.58;;;2.38;;
28427;SDS011;15662;49.128;8.520;2022-08-19T14:51:15;2.05;;;2.00;;
28427;SDS011;15662;49.128;8.520;2022-08-19T14:54:13;5.18;;;4.78;;
28427;SDS011;15662;49.128;8.520;2022-08-19T14:58:07;2.30;;;2.20;;
28427;SDS011;15662;49.128;8.520;2022-08-19T15:02:41;3.65;;;3.45;;
28427;SDS011;15662;49.128;8.520;2022-08-19T15:07:07;2.55;;;2.45;;
28427;SDS011;15662;49.128;8.520;2022-08-19T15:09:54;2.13;;;2.03;;
28427;SDS011;15662;49.128;8.520;2022-08-19T15:12:23;2.20;;;2.00;;
28427;SDS011;15662;49.128;8.520;2022-08-19T15:14:51;2.40;;;2.30;;
28427;SDS011;15662;49.128;8.520;2022-08-19T15:17:23;1.90;;;1.80;;
28427;SDS011;15662;49.128;8.520;2022-08-19T15:20:15;2.08;;;1.90;;
28427;SDS011;15662;49.128;8.520;2022-08-19T15:22:46;2.10;;;2.00;;
28427;SDS011;15662;49.128;8.520;2022-08-19T15:25:16;2.08;;;1.98;;
28427;SDS011;15662;49.128;8.520;2022-08-19T15:27:46;2.33;;;2.10;;